sensor_id;sensor_type;location;lat;lon;timestamp;temperature;humidity
29817;DHT22;16805;52.956;5.906;2024-02-16T00:01:18;11.50;99.90
29817;DHT22;16805;52.956;5.906;2024-02-16T00:03:44;11.40;99.90
29817;DHT22;16805;52.956;5.906;2024-02-16T00:06:10;11.50;99.90
29817;DHT22;16805;52.956;5.906;2024-02-16T00:08:37;11.40;99.90
29817;DHT22;16805;52.956;5.906;2024-02-16T00:11:06;11.40;99.90
29817;DHT22;16805;52.956;5.906;2024-02-16T00:13:32;11.40;99.90
29817;DHT22;16805;52.956;5.906;2024-02-16T00:15:58;11.40;99.90
29817;DHT22;16805;52.956;5.906;2024-02-16T00:18:23;11.40;99.90
29817;DHT22;16805;52.956;5.906;2024-02-16T00:20:52;11.40;99.90
29817;DHT22;16805;52.956;5.906;2024-02-16T00:23:18;11.40;99.90
29817;DHT22;16805;52.956;5.906;2024-02-16T00:25:48;11.40;99.90
29817;DHT22;16805;52.956;5.906;2024-02-16T00:28:17;11.40;99.90
29817;DHT22;16805;52.956;5.906;2024-02-16T00:30:45;11.40;99.90
29817;DHT22;16805;52.956;5.906;2024-02-16T00:33:13;11.40;99.90
29817;DHT22;16805;52.956;5.906;2024-02-16T00:35:39;11.30;99.90
29817;DHT22;16805;52.956;5.906;2024-02-16T00:38:04;11.30;99.90
29817;DHT22;16805;52.956;5.906;2024-02-16T00:40:30;11.30;99.90
29817;DHT22;16805;52.956;5.906;2024-02-16T00:42:56;11.30;99.90
29817;DHT22;16805;52.956;5.906;2024-02-16T00:45:22;11.30;99.90
29817;DHT22;16805;52.956;5.906;2024-02-16T00:47:47;11.30;99.90
29817;DHT22;16805;52.956;5.906;2024-02-16T00:50:14;11.30;99.90
29817;DHT22;16805;52.956;5.906;2024-02-16T00:52:40;11.30;99.90
29817;DHT22;16805;52.956;5.906;2024-02-16T00:55:06;11.30;99.90
29817;DHT22;16805;52.956;5.906;2024-02-16T00:57:32;11.30;99.90
29817;DHT22;16805;52.956;5.906;2024-02-16T00:59:59;11.20;99.90
29817;DHT22;16805;52.956;5.906;2024-02-16T01:02:25;11.20;99.90
29817;DHT22;16805;52.956;5.906;2024-02-16T01:04:51;11.20;99.90
29817;DHT22;16805;52.956;5.906;2024-02-16T01:07:17;11.20;99.90
29817;DHT22;16805;52.956;5.906;2024-02-16T01:09:43;11.20;99.90
29817;DHT22;16805;52.956;5.906;2024-02-16T01:12:11;11.20;99.90
29817;DHT22;16805;52.956;5.906;2024-02-16T01:14:37;11.20;99.90
29817;DHT22;16805;52.956;5.906;2024-02-16T01:17:03;11.10;99.90
29817;DHT22;16805;52.956;5.906;2024-02-16T01:19:29;11.20;99.90
29817;DHT22;16805;52.956;5.906;2024-02-16T01:21:55;11.20;99.90
29817;DHT22;16805;52.956;5.906;2024-02-16T01:24:23;11.10;99.90
29817;DHT22;16805;52.956;5.906;2024-02-16T01:26:49;11.10;99.90
29817;DHT22;16805;52.956;5.906;2024-02-16T01:29:14;11.10;99.90
29817;DHT22;16805;52.956;5.906;2024-02-16T01:31:40;11.10;99.90
29817;DHT22;16805;52.956;5.906;2024-02-16T01:34:06;11.10;99.90
29817;DHT22;16805;52.956;5.906;2024-02-16T01:36:32;11.10;99.90
29817;DHT22;16805;52.956;5.906;2024-02-16T01:38:58;11.10;99.90
29817;DHT22;16805;52.956;5.906;2024-02-16T01:41:23;11.10;99.90
29817;DHT22;16805;52.956;5.906;2024-02-16T01:43:52;11.00;99.90
29817;DHT22;16805;52.956;5.906;2024-02-16T01:46:18;11.00;99.90
29817;DHT22;16805;52.956;5.906;2024-02-16T01:48:44;11.00;99.90
29817;DHT22;16805;52.956;5.906;2024-02-16T01:51:10;11.00;99.90
29817;DHT22;16805;52.956;5.906;2024-02-16T01:53:36;11.00;99.90
29817;DHT22;16805;52.956;5.906;2024-02-16T01:56:03;11.00;99.90
29817;DHT22;16805;52.956;5.906;2024-02-16T01:58:29;11.00;99.90
29817;DHT22;16805;52.956;5.906;2024-02-16T02:00:55;11.00;99.90
29817;DHT22;16805;52.956;5.906;2024-02-16T02:03:21;11.00;99.90
29817;DHT22;16805;52.956;5.906;2024-02-16T02:05:48;10.90;99.90
29817;DHT22;16805;52.956;5.906;2024-02-16T02:08:15;10.90;99.90
29817;DHT22;16805;52.956;5.906;2024-02-16T02:10:43;10.90;99.90
29817;DHT22;16805;52.956;5.906;2024-02-16T02:13:09;10.90;99.90
29817;DHT22;16805;52.956;5.906;2024-02-16T02:15:35;10.90;99.90
29817;DHT22;16805;52.956;5.906;2024-02-16T02:18:01;10.90;99.90
29817;DHT22;16805;52.956;5.906;2024-02-16T02:20:26;10.90;99.90
29817;DHT22;16805;52.956;5.906;2024-02-16T02:22:56;10.80;99.90
29817;DHT22;16805;52.956;5.906;2024-02-16T02:25:23;10.80;99.90
29817;DHT22;16805;52.956;5.906;2024-02-16T02:27:48;10.80;99.90
29817;DHT22;16805;52.956;5.906;2024-02-16T02:30:14;10.80;99.90
29817;DHT22;16805;52.956;5.906;2024-02-16T02:32:42;10.80;99.90
29817;DHT22;16805;52.956;5.906;2024-02-16T02:35:08;10.80;99.90
29817;DHT22;16805;52.956;5.906;2024-02-16T02:37:35;10.80;99.90
29817;DHT22;16805;52.956;5.906;2024-02-16T02:40:02;10.80;99.90
29817;DHT22;16805;52.956;5.906;2024-02-16T02:42:28;10.80;99.90
29817;DHT22;16805;52.956;5.906;2024-02-16T02:44:53;10.80;99.90
29817;DHT22;16805;52.956;5.906;2024-02-16T02:47:20;10.80;99.90
29817;DHT22;16805;52.956;5.906;2024-02-16T02:49:48;10.70;99.90
29817;DHT22;16805;52.956;5.906;2024-02-16T02:52:13;10.70;99.90
29817;DHT22;16805;52.956;5.906;2024-02-16T02:54:39;10.70;99.90
29817;DHT22;16805;52.956;5.906;2024-02-16T02:57:05;10.70;99.90
29817;DHT22;16805;52.956;5.906;2024-02-16T02:59:30;10.70;99.90
29817;DHT22;16805;52.956;5.906;2024-02-16T03:01:57;10.70;99.90
29817;DHT22;16805;52.956;5.906;2024-02-16T03:04:22;10.70;99.90
29817;DHT22;16805;52.956;5.906;2024-02-16T03:06:48;10.60;99.90
29817;DHT22;16805;52.956;5.906;2024-02-16T03:09:16;10.70;99.90
29817;DHT22;16805;52.956;5.906;2024-02-16T03:11:42;10.70;99.90
29817;DHT22;16805;52.956;5.906;2024-02-16T03:14:08;10.70;99.90
29817;DHT22;16805;52.956;5.906;2024-02-16T03:16:33;10.70;99.90
29817;DHT22;16805;52.956;5.906;2024-02-16T03:18:59;10.70;99.90
29817;DHT22;16805;52.956;5.906;2024-02-16T03:21:26;10.70;99.90
29817;DHT22;16805;52.956;5.906;2024-02-16T03:23:52;10.70;99.90
29817;DHT22;16805;52.956;5.906;2024-02-16T03:26:19;10.70;99.90
29817;DHT22;16805;52.956;5.906;2024-02-16T03:28:46;10.70;99.90
29817;DHT22;16805;52.956;5.906;2024-02-16T03:31:23;10.70;99.90
29817;DHT22;16805;52.956;5.906;2024-02-16T03:33:49;10.60;99.90
29817;DHT22;16805;52.956;5.906;2024-02-16T03:36:15;10.60;99.90
29817;DHT22;16805;52.956;5.906;2024-02-16T03:38:43;10.60;99.90
29817;DHT22;16805;52.956;5.906;2024-02-16T03:41:14;10.60;99.90
29817;DHT22;16805;52.956;5.906;2024-02-16T03:43:40;10.60;99.90
29817;DHT22;16805;52.956;5.906;2024-02-16T03:46:06;10.60;99.90
29817;DHT22;16805;52.956;5.906;2024-02-16T03:48:32;10.50;99.90
29817;DHT22;16805;52.956;5.906;2024-02-16T03:50:57;10.50;99.90
29817;DHT22;16805;52.956;5.906;2024-02-16T03:53:23;10.50;99.90
29817;DHT22;16805;52.956;5.906;2024-02-16T03:55:49;10.60;99.90
29817;DHT22;16805;52.956;5.906;2024-02-16T03:58:16;10.50;99.90
29817;DHT22;16805;52.956;5.906;2024-02-16T04:00:42;10.50;99.90
29817;DHT22;16805;52.956;5.906;2024-02-16T04:03:08;10.60;99.90
29817;DHT22;16805;52.956;5.906;2024-02-16T04:05:35;10.60;99.90
29817;DHT22;16805;52.956;5.906;2024-02-16T04:08:04;10.60;99.90
29817;DHT22;16805;52.956;5.906;2024-02-16T04:10:32;10.50;99.90
29817;DHT22;16805;52.956;5.906;2024-02-16T04:12:58;10.50;99.90
29817;DHT22;16805;52.956;5.906;2024-02-16T04:15:25;10.50;99.90
29817;DHT22;16805;52.956;5.906;2024-02-16T04:17:51;10.50;99.90
29817;DHT22;16805;52.956;5.906;2024-02-16T04:20:17;10.50;99.90
29817;DHT22;16805;52.956;5.906;2024-02-16T04:22:43;10.50;99.90
29817;DHT22;16805;52.956;5.906;2024-02-16T04:25:10;10.50;99.90
29817;DHT22;16805;52.956;5.906;2024-02-16T04:27:36;10.50;99.90
29817;DHT22;16805;52.956;5.906;2024-02-16T04:30:05;10.50;99.90
29817;DHT22;16805;52.956;5.906;2024-02-16T04:32:32;10.40;99.90
29817;DHT22;16805;52.956;5.906;2024-02-16T04:34:58;10.50;99.90
29817;DHT22;16805;52.956;5.906;2024-02-16T04:37:27;10.50;99.90
29817;DHT22;16805;52.956;5.906;2024-02-16T04:39:54;10.40;99.90
29817;DHT22;16805;52.956;5.906;2024-02-16T04:42:21;10.40;99.90
29817;DHT22;16805;52.956;5.906;2024-02-16T04:44:50;10.40;99.90
29817;DHT22;16805;52.956;5.906;2024-02-16T04:47:16;10.40;99.90
29817;DHT22;16805;52.956;5.906;2024-02-16T04:49:44;10.40;99.90
29817;DHT22;16805;52.956;5.906;2024-02-16T04:52:14;10.40;99.90
29817;DHT22;16805;52.956;5.906;2024-02-16T04:54:39;10.40;99.90
29817;DHT22;16805;52.956;5.906;2024-02-16T04:57:06;10.40;99.90
29817;DHT22;16805;52.956;5.906;2024-02-16T04:59:32;10.40;99.90
29817;DHT22;16805;52.956;5.906;2024-02-16T05:01:58;10.30;99.90
29817;DHT22;16805;52.956;5.906;2024-02-16T05:04:24;10.40;99.90
29817;DHT22;16805;52.956;5.906;2024-02-16T05:06:49;10.40;99.90
29817;DHT22;16805;52.956;5.906;2024-02-16T05:09:18;10.30;99.90
29817;DHT22;16805;52.956;5.906;2024-02-16T05:11:45;10.30;99.90
29817;DHT22;16805;52.956;5.906;2024-02-16T05:14:11;10.30;99.90
29817;DHT22;16805;52.956;5.906;2024-02-16T05:16:43;10.30;99.90
29817;DHT22;16805;52.956;5.906;2024-02-16T05:19:09;10.30;99.90
29817;DHT22;16805;52.956;5.906;2024-02-16T05:21:34;10.30;99.90
29817;DHT22;16805;52.956;5.906;2024-02-16T05:24:01;10.30;99.90
29817;DHT22;16805;52.956;5.906;2024-02-16T05:26:26;10.30;99.90
29817;DHT22;16805;52.956;5.906;2024-02-16T05:28:52;10.30;99.90
29817;DHT22;16805;52.956;5.906;2024-02-16T05:31:18;10.30;99.90
29817;DHT22;16805;52.956;5.906;2024-02-16T05:33:50;10.30;99.90
29817;DHT22;16805;52.956;5.906;2024-02-16T05:36:17;10.30;99.90
29817;DHT22;16805;52.956;5.906;2024-02-16T05:38:45;10.30;99.90
29817;DHT22;16805;52.956;5.906;2024-02-16T05:41:11;10.30;99.90
29817;DHT22;16805;52.956;5.906;2024-02-16T05:43:37;10.30;99.90
29817;DHT22;16805;52.956;5.906;2024-02-16T05:46:05;10.30;99.90
29817;DHT22;16805;52.956;5.906;2024-02-16T05:48:33;10.30;99.90
29817;DHT22;16805;52.956;5.906;2024-02-16T05:51:02;10.30;99.90
29817;DHT22;16805;52.956;5.906;2024-02-16T05:53:28;10.30;99.90
29817;DHT22;16805;52.956;5.906;2024-02-16T05:55:54;10.30;99.90
29817;DHT22;16805;52.956;5.906;2024-02-16T05:58:20;10.30;99.90
29817;DHT22;16805;52.956;5.906;2024-02-16T06:00:46;10.30;99.90
29817;DHT22;16805;52.956;5.906;2024-02-16T06:03:14;10.30;99.90
29817;DHT22;16805;52.956;5.906;2024-02-16T06:05:40;10.30;99.90
29817;DHT22;16805;52.956;5.906;2024-02-16T06:08:12;10.30;99.90
29817;DHT22;16805;52.956;5.906;2024-02-16T06:10:37;10.30;99.90
29817;DHT22;16805;52.956;5.906;2024-02-16T06:13:03;10.30;99.90
29817;DHT22;16805;52.956;5.906;2024-02-16T06:15:32;10.20;99.90
29817;DHT22;16805;52.956;5.906;2024-02-16T06:18:00;10.20;99.90
29817;DHT22;16805;52.956;5.906;2024-02-16T06:20:26;10.20;99.90
29817;DHT22;16805;52.956;5.906;2024-02-16T06:22:51;10.20;99.90
29817;DHT22;16805;52.956;5.906;2024-02-16T06:25:17;10.20;99.90
29817;DHT22;16805;52.956;5.906;2024-02-16T06:27:43;10.20;99.90
29817;DHT22;16805;52.956;5.906;2024-02-16T06:30:12;10.20;99.90
29817;DHT22;16805;52.956;5.906;2024-02-16T06:32:43;10.20;99.90
29817;DHT22;16805;52.956;5.906;2024-02-16T06:35:09;10.20;99.90
29817;DHT22;16805;52.956;5.906;2024-02-16T06:37:36;10.20;99.90
29817;DHT22;16805;52.956;5.906;2024-02-16T06:40:15;10.20;99.90
29817;DHT22;16805;52.956;5.906;2024-02-16T06:42:45;10.20;99.90
29817;DHT22;16805;52.956;5.906;2024-02-16T06:45:12;10.20;99.90
29817;DHT22;16805;52.956;5.906;2024-02-16T06:47:37;10.10;99.90
29817;DHT22;16805;52.956;5.906;2024-02-16T06:50:26;10.10;99.90
29817;DHT22;16805;52.956;5.906;2024-02-16T06:52:51;10.20;99.90
29817;DHT22;16805;52.956;5.906;2024-02-16T06:55:17;10.10;99.90
29817;DHT22;16805;52.956;5.906;2024-02-16T06:57:45;10.20;99.90
29817;DHT22;16805;52.956;5.906;2024-02-16T07:00:14;10.20;99.90
29817;DHT22;16805;52.956;5.906;2024-02-16T07:02:45;10.20;99.90
29817;DHT22;16805;52.956;5.906;2024-02-16T07:05:14;10.10;99.90
29817;DHT22;16805;52.956;5.906;2024-02-16T07:07:41;10.10;99.90
29817;DHT22;16805;52.956;5.906;2024-02-16T07:10:09;10.10;99.90
29817;DHT22;16805;52.956;5.906;2024-02-16T07:12:44;10.10;99.90
29817;DHT22;16805;52.956;5.906;2024-02-16T07:15:11;10.20;99.90
29817;DHT22;16805;52.956;5.906;2024-02-16T07:17:38;10.20;99.90
29817;DHT22;16805;52.956;5.906;2024-02-16T07:20:10;10.10;99.90
29817;DHT22;16805;52.956;5.906;2024-02-16T07:22:44;10.10;99.90
29817;DHT22;16805;52.956;5.906;2024-02-16T07:25:18;10.10;99.90
29817;DHT22;16805;52.956;5.906;2024-02-16T07:27:47;10.10;99.90
29817;DHT22;16805;52.956;5.906;2024-02-16T07:30:12;10.20;99.90
29817;DHT22;16805;52.956;5.906;2024-02-16T07:32:44;10.20;99.90
29817;DHT22;16805;52.956;5.906;2024-02-16T07:35:18;10.20;99.90
29817;DHT22;16805;52.956;5.906;2024-02-16T07:37:59;10.20;99.90
29817;DHT22;16805;52.956;5.906;2024-02-16T07:40:28;10.20;99.90
29817;DHT22;16805;52.956;5.906;2024-02-16T07:42:56;10.20;99.90
29817;DHT22;16805;52.956;5.906;2024-02-16T07:45:24;10.20;99.90
29817;DHT22;16805;52.956;5.906;2024-02-16T07:47:52;10.30;99.90
29817;DHT22;16805;52.956;5.906;2024-02-16T07:50:23;10.30;99.90
29817;DHT22;16805;52.956;5.906;2024-02-16T07:52:55;10.30;99.90
29817;DHT22;16805;52.956;5.906;2024-02-16T07:55:27;10.30;99.90
29817;DHT22;16805;52.956;5.906;2024-02-16T07:57:58;10.30;99.90
29817;DHT22;16805;52.956;5.906;2024-02-16T08:00:27;10.30;99.90
29817;DHT22;16805;52.956;5.906;2024-02-16T08:02:53;10.40;99.90
29817;DHT22;16805;52.956;5.906;2024-02-16T08:05:28;10.40;99.90
29817;DHT22;16805;52.956;5.906;2024-02-16T08:07:59;10.40;99.90
29817;DHT22;16805;52.956;5.906;2024-02-16T08:10:25;10.40;99.90
29817;DHT22;16805;52.956;5.906;2024-02-16T08:13:00;10.40;99.90
29817;DHT22;16805;52.956;5.906;2024-02-16T08:15:28;10.50;99.90
29817;DHT22;16805;52.956;5.906;2024-02-16T08:17:56;10.50;99.90
29817;DHT22;16805;52.956;5.906;2024-02-16T08:20:24;10.50;99.90
29817;DHT22;16805;52.956;5.906;2024-02-16T08:22:50;10.50;99.90
29817;DHT22;16805;52.956;5.906;2024-02-16T08:25:46;10.50;99.90
29817;DHT22;16805;52.956;5.906;2024-02-16T08:28:21;10.60;99.90
29817;DHT22;16805;52.956;5.906;2024-02-16T08:30:49;10.60;99.90
29817;DHT22;16805;52.956;5.906;2024-02-16T08:35:58;10.70;99.90
29817;DHT22;16805;52.956;5.906;2024-02-16T08:38:24;10.70;99.90
29817;DHT22;16805;52.956;5.906;2024-02-16T08:40:51;10.80;99.90
29817;DHT22;16805;52.956;5.906;2024-02-16T08:43:17;10.80;99.90
29817;DHT22;16805;52.956;5.906;2024-02-16T08:45:50;10.80;99.90
29817;DHT22;16805;52.956;5.906;2024-02-16T08:48:41;10.90;99.90
29817;DHT22;16805;52.956;5.906;2024-02-16T08:51:09;10.90;99.90
29817;DHT22;16805;52.956;5.906;2024-02-16T08:53:40;11.00;99.90
29817;DHT22;16805;52.956;5.906;2024-02-16T08:56:10;11.10;99.90
29817;DHT22;16805;52.956;5.906;2024-02-16T08:58:42;11.10;99.90
29817;DHT22;16805;52.956;5.906;2024-02-16T09:01:11;11.20;99.90
29817;DHT22;16805;52.956;5.906;2024-02-16T09:03:37;11.30;99.90
29817;DHT22;16805;52.956;5.906;2024-02-16T09:06:05;11.30;99.90
29817;DHT22;16805;52.956;5.906;2024-02-16T09:08:35;11.40;99.90
29817;DHT22;16805;52.956;5.906;2024-02-16T09:11:05;11.40;99.90
29817;DHT22;16805;52.956;5.906;2024-02-16T09:13:35;11.50;99.90
29817;DHT22;16805;52.956;5.906;2024-02-16T09:16:04;11.60;99.90
29817;DHT22;16805;52.956;5.906;2024-02-16T09:18:33;11.60;99.90
29817;DHT22;16805;52.956;5.906;2024-02-16T09:21:25;11.70;99.90
29817;DHT22;16805;52.956;5.906;2024-02-16T09:23:53;11.80;99.90
29817;DHT22;16805;52.956;5.906;2024-02-16T09:26:27;11.90;99.90
29817;DHT22;16805;52.956;5.906;2024-02-16T09:29:05;11.90;99.90
29817;DHT22;16805;52.956;5.906;2024-02-16T09:31:35;12.00;99.90
29817;DHT22;16805;52.956;5.906;2024-02-16T09:34:00;12.00;99.90
29817;DHT22;16805;52.956;5.906;2024-02-16T09:36:28;12.10;99.90
29817;DHT22;16805;52.956;5.906;2024-02-16T09:39:03;12.20;99.90
29817;DHT22;16805;52.956;5.906;2024-02-16T09:41:41;12.20;99.90
29817;DHT22;16805;52.956;5.906;2024-02-16T09:44:10;12.30;99.90
29817;DHT22;16805;52.956;5.906;2024-02-16T09:46:38;12.30;99.90
29817;DHT22;16805;52.956;5.906;2024-02-16T09:49:04;12.30;99.90
29817;DHT22;16805;52.956;5.906;2024-02-16T09:51:35;12.30;99.90
29817;DHT22;16805;52.956;5.906;2024-02-16T09:54:08;12.30;99.90
29817;DHT22;16805;52.956;5.906;2024-02-16T09:56:41;12.30;99.90
29817;DHT22;16805;52.956;5.906;2024-02-16T09:59:08;12.20;99.90
29817;DHT22;16805;52.956;5.906;2024-02-16T10:01:33;12.20;99.90
29817;DHT22;16805;52.956;5.906;2024-02-16T10:04:05;12.20;99.90
29817;DHT22;16805;52.956;5.906;2024-02-16T10:06:57;12.20;99.90
29817;DHT22;16805;52.956;5.906;2024-02-16T10:09:31;12.10;99.90
29817;DHT22;16805;52.956;5.906;2024-02-16T10:11:58;12.10;99.90
29817;DHT22;16805;52.956;5.906;2024-02-16T10:14:26;12.10;99.90
29817;DHT22;16805;52.956;5.906;2024-02-16T10:17:07;12.10;99.90
29817;DHT22;16805;52.956;5.906;2024-02-16T10:19:38;12.10;99.90
29817;DHT22;16805;52.956;5.906;2024-02-16T10:22:09;12.00;99.90
29817;DHT22;16805;52.956;5.906;2024-02-16T10:24:35;12.00;99.90
29817;DHT22;16805;52.956;5.906;2024-02-16T10:27:16;11.90;99.90
29817;DHT22;16805;52.956;5.906;2024-02-16T10:29:44;11.80;99.90
29817;DHT22;16805;52.956;5.906;2024-02-16T10:32:16;11.80;99.90
29817;DHT22;16805;52.956;5.906;2024-02-16T10:34:43;11.70;99.90
29817;DHT22;16805;52.956;5.906;2024-02-16T10:37:13;11.70;99.90
29817;DHT22;16805;52.956;5.906;2024-02-16T10:39:44;11.70;99.90
29817;DHT22;16805;52.956;5.906;2024-02-16T10:42:15;11.60;99.90
29817;DHT22;16805;52.956;5.906;2024-02-16T10:44:44;11.60;99.90
29817;DHT22;16805;52.956;5.906;2024-02-16T10:47:13;11.50;99.90
29817;DHT22;16805;52.956;5.906;2024-02-16T10:49:39;11.50;99.90
29817;DHT22;16805;52.956;5.906;2024-02-16T10:52:11;11.40;99.90
29817;DHT22;16805;52.956;5.906;2024-02-16T10:54:38;11.40;99.90
29817;DHT22;16805;52.956;5.906;2024-02-16T10:57:10;11.30;99.90
29817;DHT22;16805;52.956;5.906;2024-02-16T10:59:42;11.30;99.90
29817;DHT22;16805;52.956;5.906;2024-02-16T11:02:13;11.20;99.90
29817;DHT22;16805;52.956;5.906;2024-02-16T11:04:45;11.20;99.90
29817;DHT22;16805;52.956;5.906;2024-02-16T11:07:15;11.20;99.90
29817;DHT22;16805;52.956;5.906;2024-02-16T11:09:43;11.10;99.90
29817;DHT22;16805;52.956;5.906;2024-02-16T11:12:15;11.10;99.90
29817;DHT22;16805;52.956;5.906;2024-02-16T11:14:47;11.10;99.90
29817;DHT22;16805;52.956;5.906;2024-02-16T11:17:26;11.00;99.90
29817;DHT22;16805;52.956;5.906;2024-02-16T11:20:13;11.00;99.90
29817;DHT22;16805;52.956;5.906;2024-02-16T11:22:46;11.00;99.90
29817;DHT22;16805;52.956;5.906;2024-02-16T11:25:12;11.00;99.90
29817;DHT22;16805;52.956;5.906;2024-02-16T11:27:42;11.00;99.90
29817;DHT22;16805;52.956;5.906;2024-02-16T11:30:13;10.90;99.90
29817;DHT22;16805;52.956;5.906;2024-02-16T11:32:38;10.90;99.90
29817;DHT22;16805;52.956;5.906;2024-02-16T11:35:12;10.90;99.90
29817;DHT22;16805;52.956;5.906;2024-02-16T11:37:38;10.90;99.90
29817;DHT22;16805;52.956;5.906;2024-02-16T11:40:07;10.90;99.90
29817;DHT22;16805;52.956;5.906;2024-02-16T11:42:39;10.90;99.90
29817;DHT22;16805;52.956;5.906;2024-02-16T11:45:12;10.90;99.90
29817;DHT22;16805;52.956;5.906;2024-02-16T11:47:38;10.90;99.90
29817;DHT22;16805;52.956;5.906;2024-02-16T11:52:31;10.90;99.90
29817;DHT22;16805;52.956;5.906;2024-02-16T11:55:00;10.90;99.90
29817;DHT22;16805;52.956;5.906;2024-02-16T11:57:37;10.90;99.90
29817;DHT22;16805;52.956;5.906;2024-02-16T12:00:08;10.90;99.90
29817;DHT22;16805;52.956;5.906;2024-02-16T12:02:36;10.90;99.90
29817;DHT22;16805;52.956;5.906;2024-02-16T12:05:05;11.00;99.90
29817;DHT22;16805;52.956;5.906;2024-02-16T12:07:31;11.00;99.90
29817;DHT22;16805;52.956;5.906;2024-02-16T12:10:01;11.00;99.90
29817;DHT22;16805;52.956;5.906;2024-02-16T12:12:27;11.00;99.90
29817;DHT22;16805;52.956;5.906;2024-02-16T12:14:59;11.00;99.90
29817;DHT22;16805;52.956;5.906;2024-02-16T12:17:25;11.00;99.90
29817;DHT22;16805;52.956;5.906;2024-02-16T12:19:51;11.00;99.90
29817;DHT22;16805;52.956;5.906;2024-02-16T12:22:18;11.00;99.90
29817;DHT22;16805;52.956;5.906;2024-02-16T12:24:45;11.00;99.90
29817;DHT22;16805;52.956;5.906;2024-02-16T12:27:17;11.00;99.90
29817;DHT22;16805;52.956;5.906;2024-02-16T12:29:43;11.00;99.90
29817;DHT22;16805;52.956;5.906;2024-02-16T12:32:09;11.00;99.90
29817;DHT22;16805;52.956;5.906;2024-02-16T12:34:35;11.00;99.90
29817;DHT22;16805;52.956;5.906;2024-02-16T12:37:07;11.00;99.90
29817;DHT22;16805;52.956;5.906;2024-02-16T12:39:35;10.90;99.90
29817;DHT22;16805;52.956;5.906;2024-02-16T12:42:01;11.00;99.90
29817;DHT22;16805;52.956;5.906;2024-02-16T12:44:27;11.00;99.90
29817;DHT22;16805;52.956;5.906;2024-02-16T12:47:01;11.00;99.90
29817;DHT22;16805;52.956;5.906;2024-02-16T12:49:27;11.00;99.90
29817;DHT22;16805;52.956;5.906;2024-02-16T12:51:52;11.10;99.90
29817;DHT22;16805;52.956;5.906;2024-02-16T12:54:19;11.10;99.90
29817;DHT22;16805;52.956;5.906;2024-02-16T12:56:48;11.10;99.90
29817;DHT22;16805;52.956;5.906;2024-02-16T12:59:15;11.10;99.90
29817;DHT22;16805;52.956;5.906;2024-02-16T13:01:40;11.10;99.90
29817;DHT22;16805;52.956;5.906;2024-02-16T13:04:11;11.20;99.90
29817;DHT22;16805;52.956;5.906;2024-02-16T13:06:45;11.10;99.90
29817;DHT22;16805;52.956;5.906;2024-02-16T13:09:10;11.10;99.90
29817;DHT22;16805;52.956;5.906;2024-02-16T13:11:36;11.10;99.90
29817;DHT22;16805;52.956;5.906;2024-02-16T13:14:02;11.20;99.90
29817;DHT22;16805;52.956;5.906;2024-02-16T13:16:27;11.20;99.90
29817;DHT22;16805;52.956;5.906;2024-02-16T13:18:53;11.10;99.90
29817;DHT22;16805;52.956;5.906;2024-02-16T13:21:21;11.20;99.90
29817;DHT22;16805;52.956;5.906;2024-02-16T13:23:47;11.20;99.90
29817;DHT22;16805;52.956;5.906;2024-02-16T13:26:13;11.20;99.90
29817;DHT22;16805;52.956;5.906;2024-02-16T13:28:38;11.20;99.90
29817;DHT22;16805;52.956;5.906;2024-02-16T13:31:04;11.20;99.90
29817;DHT22;16805;52.956;5.906;2024-02-16T13:33:32;11.20;99.90
29817;DHT22;16805;52.956;5.906;2024-02-16T13:35:57;11.20;99.90
29817;DHT22;16805;52.956;5.906;2024-02-16T13:38:27;11.10;99.90
29817;DHT22;16805;52.956;5.906;2024-02-16T13:40:52;11.20;99.90
29817;DHT22;16805;52.956;5.906;2024-02-16T13:43:18;11.20;99.90
29817;DHT22;16805;52.956;5.906;2024-02-16T13:45:55;11.20;99.90
29817;DHT22;16805;52.956;5.906;2024-02-16T13:48:26;11.20;99.90
29817;DHT22;16805;52.956;5.906;2024-02-16T13:50:53;11.20;99.90
29817;DHT22;16805;52.956;5.906;2024-02-16T13:53:19;11.20;99.90
29817;DHT22;16805;52.956;5.906;2024-02-16T13:55:45;11.20;99.90
29817;DHT22;16805;52.956;5.906;2024-02-16T13:58:11;11.20;99.90
29817;DHT22;16805;52.956;5.906;2024-02-16T14:00:37;11.20;99.90
29817;DHT22;16805;52.956;5.906;2024-02-16T14:03:06;11.20;99.90
29817;DHT22;16805;52.956;5.906;2024-02-16T14:05:37;11.20;99.90
29817;DHT22;16805;52.956;5.906;2024-02-16T14:08:06;11.20;99.90
29817;DHT22;16805;52.956;5.906;2024-02-16T14:10:34;11.20;99.90
29817;DHT22;16805;52.956;5.906;2024-02-16T14:13:00;11.20;99.90
29817;DHT22;16805;52.956;5.906;2024-02-16T14:15:29;11.20;99.90
29817;DHT22;16805;52.956;5.906;2024-02-16T14:17:55;11.20;99.90
29817;DHT22;16805;52.956;5.906;2024-02-16T14:20:20;11.20;99.90
29817;DHT22;16805;52.956;5.906;2024-02-16T14:22:47;11.20;99.90
29817;DHT22;16805;52.956;5.906;2024-02-16T14:25:17;11.20;99.90
29817;DHT22;16805;52.956;5.906;2024-02-16T14:27:46;11.20;99.90
29817;DHT22;16805;52.956;5.906;2024-02-16T14:30:12;11.20;99.90
29817;DHT22;16805;52.956;5.906;2024-02-16T14:32:41;11.10;99.90
29817;DHT22;16805;52.956;5.906;2024-02-16T14:35:10;11.10;99.90
29817;DHT22;16805;52.956;5.906;2024-02-16T14:37:36;11.20;99.90
29817;DHT22;16805;52.956;5.906;2024-02-16T14:40:01;11.10;99.90
29817;DHT22;16805;52.956;5.906;2024-02-16T14:42:29;11.10;99.90
29817;DHT22;16805;52.956;5.906;2024-02-16T14:44:54;11.10;99.90
29817;DHT22;16805;52.956;5.906;2024-02-16T14:47:23;11.10;99.90
29817;DHT22;16805;52.956;5.906;2024-02-16T14:49:48;11.10;99.90
29817;DHT22;16805;52.956;5.906;2024-02-16T14:52:14;11.10;99.90
29817;DHT22;16805;52.956;5.906;2024-02-16T14:54:43;11.10;99.90
29817;DHT22;16805;52.956;5.906;2024-02-16T14:57:11;11.10;99.90
29817;DHT22;16805;52.956;5.906;2024-02-16T14:59:37;11.10;99.90
29817;DHT22;16805;52.956;5.906;2024-02-16T15:02:05;11.10;99.90
29817;DHT22;16805;52.956;5.906;2024-02-16T15:04:32;11.00;99.90
29817;DHT22;16805;52.956;5.906;2024-02-16T15:07:01;11.00;99.90
29817;DHT22;16805;52.956;5.906;2024-02-16T15:09:26;11.00;99.90
29817;DHT22;16805;52.956;5.906;2024-02-16T15:11:52;11.10;99.90
29817;DHT22;16805;52.956;5.906;2024-02-16T15:14:18;11.10;99.90
29817;DHT22;16805;52.956;5.906;2024-02-16T15:16:43;11.10;99.90
29817;DHT22;16805;52.956;5.906;2024-02-16T15:19:09;11.10;99.90
29817;DHT22;16805;52.956;5.906;2024-02-16T15:21:35;11.10;99.90
29817;DHT22;16805;52.956;5.906;2024-02-16T15:24:01;11.10;99.90
29817;DHT22;16805;52.956;5.906;2024-02-16T15:26:26;11.10;99.90
29817;DHT22;16805;52.956;5.906;2024-02-16T15:28:55;11.10;99.90
29817;DHT22;16805;52.956;5.906;2024-02-16T15:31:24;11.10;99.90
29817;DHT22;16805;52.956;5.906;2024-02-16T15:33:49;11.10;99.90
29817;DHT22;16805;52.956;5.906;2024-02-16T15:36:24;11.10;99.90
29817;DHT22;16805;52.956;5.906;2024-02-16T15:38:50;11.10;99.90
29817;DHT22;16805;52.956;5.906;2024-02-16T15:41:23;11.10;99.90